createdAt,value
2024-05-09T00:01:46.392Z,13.35
2024-05-09T00:05:49.504Z,13.46
2024-05-09T00:09:50.069Z,13.38
2024-05-09T00:13:50.515Z,13.35
2024-05-09T00:17:50.797Z,13.37
2024-05-09T00:21:53.542Z,13.09
2024-05-09T00:25:54.028Z,12.98
2024-05-09T00:29:54.305Z,12.88
2024-05-09T00:33:56.122Z,12.84
2024-05-09T00:37:58.789Z,12.87
2024-05-09T00:41:59.453Z,12.96
2024-05-09T00:46:01.700Z,12.79
2024-05-09T00:50:03.247Z,12.70
2024-05-09T00:54:07.660Z,12.72
2024-05-09T00:58:14.059Z,12.73
2024-05-09T01:02:14.716Z,12.68
2024-05-09T01:06:15.565Z,12.62
2024-05-09T01:10:24.305Z,12.73
2024-05-09T01:14:32.790Z,12.74
2024-05-09T01:18:36.183Z,12.70
2024-05-09T01:22:37.858Z,12.75
2024-05-09T01:26:40.583Z,12.73
2024-05-09T01:30:40.839Z,12.72
2024-05-09T01:34:41.531Z,12.73
2024-05-09T01:38:42.122Z,12.73
2024-05-09T01:42:44.452Z,12.80
2024-05-09T01:46:44.781Z,12.87
2024-05-09T01:50:45.213Z,12.78
2024-05-09T01:54:45.491Z,12.85
2024-05-09T01:58:48.131Z,12.78
2024-05-09T02:02:48.446Z,12.52
2024-05-09T02:06:48.527Z,12.70
2024-05-09T02:10:50.481Z,12.36
2024-05-09T02:14:54.502Z,12.71
2024-05-09T02:18:54.767Z,12.71
2024-05-09T02:22:57.302Z,12.79
2024-05-09T02:26:57.637Z,12.78
2024-05-09T02:30:59.500Z,12.70
2024-05-09T02:34:59.959Z,12.71
2024-05-09T02:39:01.953Z,12.64
2024-05-09T02:43:01.688Z,12.33
2024-05-09T02:47:07.262Z,12.53
2024-05-09T02:51:08.248Z,12.59
2024-05-09T02:55:12.325Z,12.51
2024-05-09T02:59:12.965Z,12.50
2024-05-09T03:03:18.975Z,12.58
2024-05-09T03:07:20.269Z,12.58
2024-05-09T03:11:24.556Z,12.12
2024-05-09T03:15:25.167Z,12.52
2024-05-09T03:19:28.681Z,12.40
2024-05-09T03:23:29.210Z,12.44
2024-05-09T03:27:30.044Z,12.43
2024-05-09T03:31:29.837Z,12.56
2024-05-09T03:35:32.555Z,12.52
2024-05-09T03:39:33.626Z,12.43
2024-05-09T03:43:37.501Z,12.45
2024-05-09T03:47:42.590Z,12.38
2024-05-09T03:51:45.567Z,12.47
2024-05-09T03:55:43.777Z,12.42
2024-05-09T03:59:43.751Z,12.30
2024-05-09T04:03:44.592Z,12.19
2024-05-09T04:07:50.745Z,12.52
2024-05-09T04:11:50.839Z,12.34
2024-05-09T04:15:51.165Z,12.59
2024-05-09T04:19:52.568Z,12.58
2024-05-09T04:23:55.267Z,12.58
2024-05-09T04:27:56.435Z,12.51
2024-05-09T04:31:58.138Z,12.60
2024-05-09T04:35:56.491Z,12.58
2024-05-09T04:39:59.720Z,12.55
2024-05-09T04:44:02.627Z,12.59
2024-05-09T04:48:03.030Z,12.48
2024-05-09T04:52:06.952Z,12.48
2024-05-09T04:56:12.228Z,12.52
2024-05-09T05:00:21.758Z,12.39
2024-05-09T05:04:29.936Z,12.34
2024-05-09T05:08:30.371Z,12.54
2024-05-09T05:12:50.185Z,12.29
2024-05-09T05:16:50.823Z,12.50
2024-05-09T05:20:56.892Z,12.38
2024-05-09T05:24:59.891Z,12.31
2024-05-09T05:29:06.796Z,12.37
2024-05-09T05:33:08.152Z,12.30
2024-05-09T05:37:08.795Z,12.27
2024-05-09T05:41:09.302Z,12.13
2024-05-09T05:45:12.349Z,11.70
2024-05-09T05:49:14.353Z,11.98
2024-05-09T05:53:15.797Z,11.99
2024-05-09T05:57:16.228Z,11.79
2024-05-09T06:01:29.653Z,12.02
2024-05-09T06:05:40.229Z,11.61
2024-05-09T06:09:47.625Z,11.74
2024-05-09T06:14:01.354Z,12.02
2024-05-09T06:18:28.730Z,11.89
2024-05-09T06:27:49.126Z,12.26
2024-05-09T06:32:24.995Z,12.37
2024-05-09T06:37:18.704Z,12.44
2024-05-09T06:41:18.779Z,12.52
2024-05-09T06:45:29.334Z,12.42
2024-05-09T06:49:37.675Z,11.78
2024-05-09T06:53:43.391Z,11.80
2024-05-09T06:57:44.026Z,11.24
2024-05-09T07:01:47.882Z,11.53
2024-05-09T07:05:52.179Z,11.48
2024-05-09T07:10:01.406Z,11.58
2024-05-09T07:14:20.852Z,11.54
2024-05-09T07:18:35.476Z,10.89
2024-05-09T07:22:36.433Z,11.36
2024-05-09T07:26:46.988Z,10.99
2024-05-09T07:31:01.706Z,11.15
2024-05-09T07:35:17.199Z,11.61
2024-05-09T07:39:22.697Z,11.57
2024-05-09T07:43:30.142Z,11.53
2024-05-09T07:48:57.475Z,11.63
2024-05-09T07:53:21.089Z,11.36
2024-05-09T07:56:14.274Z,11.73
2024-05-09T08:00:29.656Z,11.70
2024-05-09T08:04:32.716Z,11.79
2024-05-09T08:08:34.141Z,12.02
2024-05-09T08:12:34.854Z,11.99
2024-05-09T08:16:37.002Z,12.08
2024-05-09T08:20:38.799Z,11.81
2024-05-09T08:24:36.299Z,12.13
2024-05-09T08:28:36.434Z,11.94
2024-05-09T08:32:38.525Z,12.19
2024-05-09T08:36:40.552Z,11.65
2024-05-09T08:40:41.004Z,11.75
2024-05-09T08:44:41.390Z,12.20
2024-05-09T08:48:46.026Z,12.12
2024-05-09T08:52:44.627Z,12.00
2024-05-09T08:56:48.374Z,11.95
2024-05-09T09:00:50.124Z,12.06
2024-05-09T09:05:01.673Z,12.04
2024-05-09T09:09:03.639Z,12.10
2024-05-09T09:13:06.849Z,12.40
2024-05-09T09:17:15.249Z,12.41
2024-05-09T09:21:17.721Z,12.63
2024-05-09T09:25:18.109Z,12.77
2024-05-09T09:29:22.238Z,12.90
2024-05-09T09:33:22.664Z,12.91
2024-05-09T09:37:30.475Z,13.22
2024-05-09T09:41:33.601Z,13.38
2024-05-09T09:45:34.623Z,13.28
2024-05-09T09:49:38.810Z,13.76
2024-05-09T09:53:42.132Z,13.88
2024-05-09T09:57:43.487Z,14.07
2024-05-09T10:01:44.673Z,14.17
2024-05-09T10:05:47.332Z,14.06
2024-05-09T10:09:50.535Z,14.13
2024-05-09T10:13:53.514Z,14.23
2024-05-09T10:17:53.664Z,14.27
2024-05-09T10:21:53.916Z,14.45
2024-05-09T10:26:00.996Z,14.20
2024-05-09T10:30:02.838Z,14.26
2024-05-09T10:34:05.267Z,14.37
2024-05-09T10:38:08.238Z,14.26
2024-05-09T10:42:12.695Z,14.14
2024-05-09T10:46:14.361Z,14.10
2024-05-09T10:50:22.304Z,13.90
2024-05-09T10:54:37.728Z,13.60
2024-05-09T10:58:38.436Z,13.84
2024-05-09T11:02:39.133Z,13.80
2024-05-09T11:06:42.125Z,13.83
2024-05-09T11:10:43.027Z,13.57
2024-05-09T11:14:55.536Z,13.61
2024-05-09T11:18:57.896Z,13.58
2024-05-09T11:23:00.192Z,13.63
2024-05-09T11:27:01.242Z,13.66
2024-05-09T11:31:11.030Z,13.75
2024-05-09T11:35:11.112Z,13.73
2024-05-09T11:39:11.428Z,13.84
2024-05-09T11:43:11.236Z,13.82
2024-05-09T11:47:13.474Z,13.79
2024-05-09T11:51:13.636Z,13.95
2024-05-09T11:55:13.569Z,13.99
2024-05-09T11:59:13.820Z,14.07
2024-05-09T12:03:16.182Z,14.10
2024-05-09T12:07:16.829Z,13.86
2024-05-09T12:11:17.470Z,14.21
2024-05-09T12:15:17.978Z,14.12
2024-05-09T12:19:20.734Z,14.10
2024-05-09T12:23:21.247Z,14.18
2024-05-09T12:27:24.081Z,14.19
2024-05-09T12:31:24.416Z,14.23
2024-05-09T12:35:27.958Z,14.14
2024-05-09T12:39:30.463Z,13.97
2024-05-09T12:43:30.972Z,13.96
2024-05-09T12:47:31.531Z,14.00
2024-05-09T12:51:34.516Z,14.06
2024-05-09T12:55:43.904Z,13.93
2024-05-09T12:59:49.546Z,13.63
2024-05-09T13:03:53.417Z,13.67
2024-05-09T13:07:56.453Z,13.53
2024-05-09T13:11:57.096Z,13.36
2024-05-09T13:15:57.430Z,13.45
2024-05-09T13:19:56.935Z,13.34
2024-05-09T13:24:00.748Z,13.36
2024-05-09T13:28:01.525Z,13.32
2024-05-09T13:32:01.739Z,13.24
2024-05-09T13:36:02.893Z,13.32
2024-05-09T13:40:12.131Z,13.38
2024-05-09T13:44:14.858Z,13.20
2024-05-09T13:48:17.643Z,13.69
2024-05-09T13:52:20.183Z,13.56
2024-05-09T13:56:23.430Z,14.02
2024-05-09T14:00:37.726Z,14.17
2024-05-09T14:04:46.093Z,14.09
2024-05-09T14:08:49.577Z,14.08
2024-05-09T14:12:54.850Z,14.06
2024-05-09T14:16:55.340Z,14.09
2024-05-09T14:20:55.488Z,14.12
2024-05-09T14:24:55.780Z,14.09
2024-05-09T14:28:58.427Z,14.24
2024-05-09T14:32:58.538Z,14.23
2024-05-09T14:36:58.564Z,14.42
2024-05-09T14:40:58.849Z,14.84
2024-05-09T14:45:01.806Z,14.95
2024-05-09T14:49:02.232Z,14.82
2024-05-09T14:53:03.094Z,15.06
2024-05-09T14:57:03.548Z,15.21
2024-05-09T15:01:05.612Z,15.41
2024-05-09T15:05:06.913Z,15.58
2024-05-09T15:09:07.839Z,15.56
2024-05-09T15:13:10.364Z,16.08
2024-05-09T15:17:14.810Z,16.00
2024-05-09T15:21:15.355Z,15.80
2024-05-09T15:25:15.790Z,15.81
2024-05-09T15:29:17.516Z,15.64
2024-05-09T15:33:19.977Z,15.30
2024-05-09T15:37:20.580Z,14.99
2024-05-09T15:41:20.519Z,15.20
2024-05-09T15:45:20.638Z,15.11
2024-05-09T15:49:23.176Z,15.03
2024-05-09T15:53:23.657Z,15.15
2024-05-09T15:57:25.492Z,15.30
2024-05-09T16:01:27.149Z,15.27
2024-05-09T16:05:29.782Z,15.28
2024-05-09T16:09:30.047Z,15.23
2024-05-09T16:13:30.888Z,15.33
2024-05-09T16:17:32.999Z,15.48
2024-05-09T16:21:38.601Z,15.60
2024-05-09T16:25:41.552Z,16.06
2024-05-09T16:29:42.719Z,16.66
2024-05-09T16:33:52.242Z,16.89
2024-05-09T16:38:00.130Z,17.20
2024-05-09T16:42:17.076Z,17.47
2024-05-09T16:46:24.388Z,17.68
2024-05-09T16:50:32.484Z,18.01
2024-05-09T16:54:57.559Z,17.94
2024-05-09T16:59:14.331Z,17.99
2024-05-09T17:03:45.460Z,17.96
2024-05-09T17:07:51.606Z,18.10
2024-05-09T17:12:00.486Z,18.37
2024-05-09T17:16:01.102Z,18.24
2024-05-09T17:20:01.180Z,18.19
2024-05-09T17:24:05.508Z,18.30
2024-05-09T17:28:10.475Z,18.37
2024-05-09T17:32:11.971Z,18.40
2024-05-09T17:36:15.713Z,18.35
2024-05-09T17:40:27.120Z,18.11
2024-05-09T17:44:34.169Z,17.81
2024-05-09T17:48:52.264Z,17.70
2024-05-09T17:52:53.527Z,17.71
2024-05-09T17:57:08.611Z,17.35
2024-05-09T18:01:21.590Z,17.53
2024-05-09T18:05:29.160Z,17.41
2024-05-09T18:09:45.603Z,17.44
2024-05-09T18:14:03.932Z,17.46
2024-05-09T18:18:24.983Z,17.17
2024-05-09T18:27:29.714Z,17.13
2024-05-09T18:31:31.492Z,16.45
2024-05-09T18:35:37.534Z,16.74
2024-05-09T18:39:38.838Z,16.51
2024-05-09T18:43:45.011Z,16.86
2024-05-09T18:47:49.994Z,16.91
2024-05-09T18:51:56.101Z,16.82
2024-05-09T18:55:59.174Z,16.58
2024-05-09T19:00:00.833Z,16.73
2024-05-09T19:04:02.013Z,16.96
2024-05-09T19:08:06.891Z,16.90
2024-05-09T19:12:09.483Z,16.53
2024-05-09T19:16:13.344Z,16.72
2024-05-09T19:20:28.709Z,17.08
2024-05-09T19:24:39.626Z,17.13
2024-05-09T19:28:40.303Z,17.27
2024-05-09T19:32:47.084Z,16.77
2024-05-09T19:37:00.093Z,16.85
2024-05-09T19:41:04.198Z,16.72
2024-05-09T19:45:08.726Z,16.45
2024-05-09T19:49:13.693Z,16.31
2024-05-09T19:53:47.490Z,16.14
2024-05-09T19:57:56.798Z,16.25
2024-05-09T20:02:04.885Z,16.49
2024-05-09T20:06:15.714Z,16.70
2024-05-09T20:10:29.819Z,16.46
2024-05-09T20:14:41.043Z,16.33
2024-05-09T20:18:51.290Z,15.76
2024-05-09T20:23:06.503Z,15.80
2024-05-09T20:27:20.848Z,15.55
2024-05-09T20:31:27.634Z,15.62
2024-05-09T20:36:11.651Z,15.59
2024-05-09T20:40:29.225Z,15.38
2024-05-09T20:44:41.004Z,15.23
2024-05-09T20:48:49.275Z,15.23
2024-05-09T20:53:06.946Z,15.22
2024-05-09T20:57:12.365Z,15.43
2024-05-09T21:01:29.091Z,15.38
2024-05-09T21:05:38.674Z,14.94
2024-05-09T21:09:49.620Z,15.54
2024-05-09T21:13:59.030Z,15.86
2024-05-09T21:18:05.419Z,15.87
2024-05-09T21:22:12.256Z,16.01
2024-05-09T21:26:19.482Z,16.30
2024-05-09T21:30:33.142Z,16.49
2024-05-09T21:34:44.407Z,16.41
2024-05-09T21:38:47.226Z,16.05
2024-05-09T21:42:47.840Z,15.89
2024-05-09T21:46:51.915Z,16.12
2024-05-09T21:50:53.477Z,16.12
2024-05-09T21:55:00.003Z,16.00
2024-05-09T21:59:01.731Z,15.92
2024-05-09T22:03:02.791Z,15.76
2024-05-09T22:07:01.580Z,15.74
2024-05-09T22:11:25.191Z,15.86
2024-05-09T22:15:25.579Z,15.89
2024-05-09T22:19:26.484Z,15.64
2024-05-09T22:23:28.922Z,15.62
2024-05-09T22:27:44.878Z,15.81
2024-05-09T22:31:50.362Z,15.95
2024-05-09T22:35:51.259Z,15.87
2024-05-09T22:39:56.270Z,15.60
2024-05-09T22:48:29.215Z,15.84
2024-05-09T22:52:28.033Z,15.78
2024-05-09T22:56:31.078Z,15.58
2024-05-09T23:00:35.889Z,15.32
2024-05-09T23:04:35.025Z,15.38
2024-05-09T23:08:40.479Z,15.16
2024-05-09T23:12:43.923Z,15.20
2024-05-09T23:16:50.094Z,15.14
2024-05-09T23:21:02.571Z,15.38
2024-05-09T23:25:07.422Z,15.39
2024-05-09T23:29:08.453Z,15.71
2024-05-09T23:33:14.425Z,16.06
2024-05-09T23:37:19.036Z,16.03
2024-05-09T23:41:21.925Z,16.13
2024-05-09T23:45:25.594Z,16.36
2024-05-09T23:49:34.806Z,16.52
2024-05-09T23:53:36.468Z,16.58
2024-05-09T23:57:36.745Z,16.49
